Time;durP1;ratioP1;P1;durP2;ratioP2;P2;SDS_P1;SDS_P2;PMS_P1;PMS_P2;Temp;Humidity;BMP_temperature;BMP_pressure;BME280_temperature;BME280_humidity;BME280_pressure;Samples;Min_cycle;Max_cycle;Signal;HPM_P1;HPM_P2
2023/06/27 00:01:39;;;;;;;0.98;0.60;;;23.90;74.20;;;;;;5125602;27;45361;-58
2023/06/27 00:04:06;;;;;;;1.02;0.50;;;23.90;74.40;;;;;;5125898;27;45313;-57
2023/06/27 00:06:37;;;;;;;1.77;0.73;;;23.90;76.40;;;;;;5126065;27;45436;-58
2023/06/27 00:09:06;;;;;;;0.93;0.50;;;23.90;75.50;;;;;;5124536;27;45309;-57
2023/06/27 00:11:33;;;;;;;0.73;0.40;;;23.90;75.90;;;;;;5125450;27;45399;-57
2023/06/27 00:14:00;;;;;;;0.68;0.40;;;23.90;75.80;;;;;;5119138;27;45267;-57
2023/06/27 00:16:32;;;;;;;0.95;0.45;;;23.90;76.00;;;;;;5126101;27;45453;-58
2023/06/27 00:19:03;;;;;;;1.05;0.63;;;23.80;75.70;;;;;;5125722;27;45704;-58
2023/06/27 00:21:31;;;;;;;0.88;0.60;;;23.80;75.90;;;;;;5123718;27;47037;-58
2023/06/27 00:23:58;;;;;;;0.52;0.50;;;23.80;75.80;;;;;;5125001;27;45357;-58
2023/06/27 00:26:28;;;;;;;0.93;0.63;;;23.80;77.10;;;;;;5115565;27;45520;-58
2023/06/27 00:28:55;;;;;;;2.17;0.60;;;23.80;76.30;;;;;;5112785;27;45538;-58
2023/06/27 00:31:22;;;;;;;0.93;0.50;;;23.80;76.10;;;;;;5120159;27;45503;-58
2023/06/27 00:33:48;;;;;;;0.47;0.47;;;23.80;76.60;;;;;;5113418;27;45358;-58
2023/06/27 00:36:15;;;;;;;0.50;0.50;;;23.80;75.60;;;;;;5109296;27;45507;-58
2023/06/27 00:38:42;;;;;;;0.47;0.40;;;23.80;75.60;;;;;;5124440;27;45470;-58
2023/06/27 00:41:09;;;;;;;0.70;0.60;;;23.80;75.40;;;;;;5113487;27;46324;-58
2023/06/27 00:43:37;;;;;;;1.13;0.60;;;23.80;74.90;;;;;;5114196;27;46089;-58
2023/06/27 00:46:07;;;;;;;1.40;0.65;;;23.80;75.00;;;;;;5124202;27;45464;-58
2023/06/27 00:48:34;;;;;;;0.80;0.73;;;23.80;74.70;;;;;;5120765;27;45413;-57
2023/06/27 00:51:03;;;;;;;0.70;0.57;;;23.80;74.80;;;;;;5121906;27;47611;-57
2023/06/27 00:53:30;;;;;;;0.73;0.50;;;23.90;74.60;;;;;;5119929;27;45630;-58
2023/06/27 00:55:57;;;;;;;0.50;0.50;;;23.90;74.50;;;;;;5113832;27;45315;-58
2023/06/27 00:58:24;;;;;;;1.15;0.60;;;23.90;74.60;;;;;;5117145;27;45320;-57
2023/06/27 01:00:52;;;;;;;0.60;0.60;;;23.90;74.30;;;;;;5111323;27;46380;-57
2023/06/27 01:03:21;;;;;;;2.20;0.52;;;23.80;74.30;;;;;;5115533;27;45292;-58
2023/06/27 01:05:48;;;;;;;0.75;0.55;;;23.90;74.20;;;;;;5121045;27;45448;-58
2023/06/27 01:08:24;;;;;;;0.82;0.60;;;23.90;74.30;;;;;;5124971;27;45535;-58
2023/06/27 01:10:59;;;;;;;1.15;0.63;;;23.80;73.90;;;;;;5123797;27;47414;-57
2023/06/27 01:13:31;;;;;;;1.05;0.52;;;23.90;74.00;;;;;;5120594;27;45401;-58
2023/06/27 01:16:00;;;;;;;1.30;0.60;;;23.80;73.90;;;;;;5122637;27;45468;-58
2023/06/27 01:18:31;;;;;;;0.85;0.50;;;23.80;74.80;;;;;;5106418;27;45738;-58
2023/06/27 01:20:59;;;;;;;0.88;0.65;;;23.80;75.00;;;;;;5123597;27;45540;-57
2023/06/27 01:23:31;;;;;;;0.50;0.40;;;23.80;75.00;;;;;;5124028;27;45484;-58
2023/06/27 01:26:04;;;;;;;1.02;0.43;;;23.80;74.90;;;;;;5124436;27;45369;-58
2023/06/27 01:28:32;;;;;;;1.20;0.43;;;23.80;75.10;;;;;;5124004;27;45468;-58
2023/06/27 01:31:01;;;;;;;0.98;0.70;;;23.80;75.20;;;;;;5124386;27;46612;-57
2023/06/27 01:33:32;;;;;;;0.90;0.57;;;23.80;75.80;;;;;;5123402;27;45275;-58
2023/06/27 01:36:05;;;;;;;0.77;0.50;;;23.80;75.90;;;;;;5124381;27;45395;-58
2023/06/27 01:38:38;;;;;;;0.63;0.43;;;23.80;78.50;;;;;;5124205;27;45304;-57
2023/06/27 01:41:10;;;;;;;0.68;0.50;;;23.80;80.90;;;;;;5124139;27;46872;-57
2023/06/27 01:43:38;;;;;;;1.85;0.45;;;23.80;77.20;;;;;;5124442;27;45260;-57
2023/06/27 01:46:05;;;;;;;1.27;0.52;;;23.70;76.80;;;;;;5124484;27;45237;-58
2023/06/27 01:48:33;;;;;;;0.30;0.30;;;23.80;76.10;;;;;;5123319;27;45476;-58
2023/06/27 01:51:00;;;;;;;0.52;0.52;;;23.80;76.00;;;;;;5117442;27;46300;-57
2023/06/27 01:53:27;;;;;;;0.43;0.40;;;23.80;76.50;;;;;;5114360;27;45448;-57
2023/06/27 01:55:53;;;;;;;0.73;0.50;;;23.80;75.70;;;;;;5117846;27;45375;-57
2023/06/27 01:58:22;;;;;;;1.55;0.70;;;23.80;75.30;;;;;;5103292;27;45327;-57
2023/06/27 02:00:49;;;;;;;1.35;0.65;;;23.80;74.90;;;;;;5115039;27;48317;-58
2023/06/27 02:03:16;;;;;;;2.78;0.60;;;23.80;74.50;;;;;;5114939;27;45344;-58
2023/06/27 02:05:43;;;;;;;0.90;0.70;;;23.80;74.30;;;;;;5123735;27;45313;-58
2023/06/27 02:08:09;;;;;;;0.77;0.68;;;23.80;74.50;;;;;;5117528;27;45293;-58
2023/06/27 02:10:36;;;;;;;1.75;0.70;;;23.80;74.40;;;;;;5115775;27;47892;-58
2023/06/27 02:13:03;;;;;;;0.70;0.60;;;23.80;74.30;;;;;;5118276;27;45375;-58
2023/06/27 02:15:31;;;;;;;0.93;0.68;;;23.80;74.40;;;;;;5112785;27;45345;-58
2023/06/27 02:17:58;;;;;;;0.95;0.50;;;23.80;74.30;;;;;;5120619;27;45375;-57
2023/06/27 02:20:25;;;;;;;1.40;0.70;;;23.80;74.20;;;;;;5119614;27;46307;-57
2023/06/27 02:22:52;;;;;;;1.00;0.50;;;23.80;74.20;;;;;;5112391;27;45668;-57
2023/06/27 02:25:19;;;;;;;1.20;0.65;;;23.80;74.40;;;;;;5114073;27;45312;-57
2023/06/27 02:27:46;;;;;;;0.55;0.47;;;23.80;75.20;;;;;;5121405;27;45535;-58
2023/06/27 02:30:13;;;;;;;1.02;0.60;;;23.80;75.60;;;;;;5121825;27;46632;-58
2023/06/27 02:32:41;;;;;;;1.33;0.77;;;23.80;75.00;;;;;;5123050;27;45354;-58
2023/06/27 02:35:08;;;;;;;0.80;0.43;;;23.80;75.40;;;;;;5122781;27;45425;-57
2023/06/27 02:37:35;;;;;;;3.33;0.80;;;23.80;76.30;;;;;;5123432;27;45429;-58
2023/06/27 02:40:02;;;;;;;1.83;0.55;;;23.80;75.20;;;;;;5122865;27;47171;-58
2023/06/27 02:42:29;;;;;;;1.23;0.80;;;23.70;75.30;;;;;;5123238;27;45953;-57
2023/06/27 02:44:56;;;;;;;1.08;0.60;;;23.70;75.10;;;;;;5123564;27;45354;-57
2023/06/27 02:47:22;;;;;;;1.35;0.70;;;23.70;75.30;;;;;;5123864;27;45543;-58
2023/06/27 02:49:50;;;;;;;3.55;0.70;;;23.80;75.40;;;;;;5119741;27;47497;-58
2023/06/27 02:52:17;;;;;;;0.93;0.60;;;23.70;75.30;;;;;;5119931;27;45451;-57
2023/06/27 02:54:44;;;;;;;1.70;0.60;;;23.70;75.20;;;;;;5120886;27;45377;-57
2023/06/27 02:57:11;;;;;;;0.90;0.70;;;23.70;75.60;;;;;;5120475;27;45358;-58
2023/06/27 02:59:37;;;;;;;0.88;0.60;;;23.80;75.30;;;;;;5120786;27;46483;-57
2023/06/27 03:02:05;;;;;;;1.80;0.60;;;23.70;76.00;;;;;;5113620;27;45371;-57
2023/06/27 03:04:32;;;;;;;1.25;0.57;;;23.80;75.80;;;;;;5110464;27;45395;-58
2023/06/27 03:07:00;;;;;;;1.85;0.70;;;23.70;75.00;;;;;;5118435;27;45356;-58
2023/06/27 03:09:26;;;;;;;2.40;0.80;;;23.80;75.00;;;;;;5117315;27;47498;-57
2023/06/27 03:11:53;;;;;;;1.48;0.80;;;23.70;74.80;;;;;;5120383;27;45600;-57
2023/06/27 03:14:20;;;;;;;2.38;0.80;;;23.70;75.30;;;;;;5116950;27;45468;-57
2023/06/27 03:16:47;;;;;;;2.60;1.05;;;23.80;74.50;;;;;;5120012;27;45508;-58
2023/06/27 03:19:14;;;;;;;2.65;0.80;;;23.80;74.50;;;;;;5121211;27;46115;-58
2023/06/27 03:21:40;;;;;;;2.00;0.63;;;23.80;74.50;;;;;;5110940;27;45491;-57
2023/06/27 03:24:09;;;;;;;1.15;0.70;;;23.80;74.50;;;;;;5121396;27;45384;-58
2023/06/27 03:26:35;;;;;;;2.03;0.73;;;23.80;74.70;;;;;;5122388;27;45281;-57
2023/06/27 03:29:02;;;;;;;4.68;0.50;;;23.80;76.50;;;;;;5116157;27;45451;-57
2023/06/27 03:31:29;;;;;;;1.65;0.80;;;23.80;74.30;;;;;;5123640;27;45280;-57
2023/06/27 03:33:57;;;;;;;1.20;0.75;;;23.70;74.40;;;;;;5109743;27;45678;-58
2023/06/27 03:36:24;;;;;;;1.48;0.80;;;23.80;74.30;;;;;;5118905;27;45571;-58
2023/06/27 03:38:50;;;;;;;1.00;0.57;;;23.80;74.60;;;;;;5109773;27;46455;-57
2023/06/27 03:41:19;;;;;;;1.60;0.82;;;23.70;74.50;;;;;;5113220;27;45622;-57
2023/06/27 03:43:46;;;;;;;1.52;0.70;;;23.70;74.70;;;;;;5110404;27;45404;-58
2023/06/27 03:46:14;;;;;;;1.27;0.65;;;23.70;76.00;;;;;;5116298;27;45583;-58
2023/06/27 03:48:41;;;;;;;0.98;0.70;;;23.70;77.10;;;;;;5120827;27;46357;-57
2023/06/27 03:51:07;;;;;;;2.05;0.70;;;23.70;76.80;;;;;;5118656;27;45463;-57
2023/06/27 03:53:34;;;;;;;1.67;1.08;;;23.70;76.80;;;;;;5116877;27;45566;-57
2023/06/27 03:56:01;;;;;;;1.15;0.68;;;23.70;76.50;;;;;;5113634;27;45323;-58
2023/06/27 03:58:29;;;;;;;1.00;0.70;;;23.70;76.90;;;;;;5117997;27;46163;-57
2023/06/27 04:00:56;;;;;;;2.00;0.90;;;23.70;77.10;;;;;;5123296;27;45537;-58
2023/06/27 04:03:23;;;;;;;1.35;0.63;;;23.70;77.50;;;;;;5119340;27;45341;-58
2023/06/27 04:05:50;;;;;;;2.85;0.80;;;23.70;77.80;;;;;;5118011;27;45497;-58
2023/06/27 04:08:17;;;;;;;1.55;0.73;;;23.60;76.60;;;;;;5112849;27;46626;-58
2023/06/27 04:10:43;;;;;;;0.57;0.57;;;23.70;75.90;;;;;;5120109;27;45539;-58
2023/06/27 04:13:10;;;;;;;2.47;0.73;;;23.70;75.40;;;;;;5121046;27;45529;-58
2023/06/27 04:15:40;;;;;;;0.75;0.57;;;23.70;75.40;;;;;;5109940;27;45427;-57
2023/06/27 04:18:06;;;;;;;2.63;0.77;;;23.70;75.60;;;;;;5105310;27;45535;-57
2023/06/27 04:20:33;;;;;;;2.58;0.90;;;23.70;75.50;;;;;;5119879;27;46309;-57
2023/06/27 04:23:00;;;;;;;0.98;0.80;;;23.70;75.00;;;;;;5123908;27;45398;-57
2023/06/27 04:25:32;;;;;;;2.10;0.80;;;23.70;74.90;;;;;;5117142;27;45551;-57
2023/06/27 04:27:59;;;;;;;1.20;0.80;;;23.70;75.00;;;;;;5115675;27;45491;-57
2023/06/27 04:30:26;;;;;;;3.42;1.05;;;23.80;74.70;;;;;;5121176;27;45485;-57
2023/06/27 04:32:54;;;;;;;1.83;0.82;;;23.80;74.20;;;;;;5121175;27;45399;-57
2023/06/27 04:35:21;;;;;;;4.38;0.98;;;23.70;73.80;;;;;;5124376;27;45366;-58
2023/06/27 04:37:48;;;;;;;1.05;0.68;;;23.70;74.10;;;;;;5125123;27;47516;-58
2023/06/27 04:40:15;;;;;;;3.22;0.70;;;23.70;74.10;;;;;;5118268;27;45421;-58
2023/06/27 04:42:42;;;;;;;3.78;0.90;;;23.70;74.00;;;;;;5122026;27;45335;-57
2023/06/27 04:45:09;;;;;;;3.15;1.27;;;23.70;74.70;;;;;;5125815;27;45512;-57
2023/06/27 04:47:36;;;;;;;2.90;1.20;;;23.70;74.50;;;;;;5117008;27;48488;-58
2023/06/27 04:50:05;;;;;;;4.00;1.10;;;23.70;74.30;;;;;;5117166;27;45589;-58
2023/06/27 04:52:32;;;;;;;1.70;0.88;;;23.70;74.70;;;;;;5120510;27;45583;-58
2023/06/27 04:54:59;;;;;;;2.40;0.88;;;23.70;74.40;;;;;;5124836;27;45302;-58
2023/06/27 04:57:26;;;;;;;3.90;0.95;;;23.70;74.50;;;;;;5119903;27;46955;-58
2023/06/27 04:59:53;;;;;;;5.13;1.20;;;23.70;75.30;;;;;;5109961;27;45539;-58
2023/06/27 05:02:19;;;;;;;2.55;1.23;;;23.70;75.20;;;;;;5121212;27;45257;-58
2023/06/27 05:04:46;;;;;;;4.63;1.10;;;23.70;75.20;;;;;;5110305;27;45466;-59
2023/06/27 05:07:14;;;;;;;1.35;0.82;;;23.70;74.70;;;;;;5120869;27;46604;-58
2023/06/27 05:09:41;;;;;;;3.88;1.17;;;23.70;74.80;;;;;;5114469;27;45410;-59
2023/06/27 05:12:08;;;;;;;3.80;1.20;;;23.70;75.90;;;;;;5117889;27;45449;-58
2023/06/27 05:14:35;;;;;;;3.38;1.17;;;23.80;75.30;;;;;;5122934;27;45463;-58
2023/06/27 05:17:02;;;;;;;1.45;0.95;;;23.70;75.10;;;;;;5118839;27;46633;-58
2023/06/27 05:19:29;;;;;;;3.85;1.27;;;23.80;75.20;;;;;;5124405;27;45415;-57
2023/06/27 05:21:55;;;;;;;1.35;0.90;;;23.80;75.30;;;;;;5106640;27;45421;-58
2023/06/27 05:24:24;;;;;;;3.35;1.13;;;23.80;75.40;;;;;;5106483;27;45568;-58
2023/06/27 05:26:50;;;;;;;1.70;0.93;;;23.80;75.80;;;;;;5118312;27;48412;-58
2023/06/27 05:29:17;;;;;;;4.07;1.27;;;23.80;76.20;;;;;;5117853;27;45442;-58
2023/06/27 05:31:44;;;;;;;2.92;0.93;;;23.80;76.60;;;;;;5113300;27;45337;-58
2023/06/27 05:34:12;;;;;;;3.15;1.17;;;23.80;76.70;;;;;;5122080;27;45314;-58
2023/06/27 05:36:38;;;;;;;2.63;0.70;;;23.80;77.10;;;;;;5123509;27;48785;-58
2023/06/27 05:39:05;;;;;;;2.97;1.00;;;23.80;77.10;;;;;;5113137;27;45763;-58
2023/06/27 05:41:33;;;;;;;3.42;0.90;;;23.80;77.00;;;;;;5105306;27;45399;-58
2023/06/27 05:44:00;;;;;;;2.28;1.10;;;23.80;77.00;;;;;;5112906;27;45268;-58
2023/06/27 05:46:27;;;;;;;1.85;1.00;;;23.80;77.10;;;;;;5114349;27;47507;-58
2023/06/27 05:48:53;;;;;;;4.53;0.85;;;23.80;77.10;;;;;;5109967;27;45544;-59
2023/06/27 05:51:22;;;;;;;2.15;1.15;;;23.80;77.70;;;;;;5116093;27;45431;-58
2023/06/27 05:53:48;;;;;;;2.10;0.77;;;23.80;77.30;;;;;;5117487;27;45373;-58
2023/06/27 05:56:15;;;;;;;2.50;1.10;;;23.80;77.70;;;;;;5117079;27;45432;-58
2023/06/27 05:58:43;;;;;;;2.30;1.00;;;23.80;78.20;;;;;;5108907;27;45392;-58
2023/06/27 06:01:10;;;;;;;1.48;0.77;;;23.80;77.80;;;;;;5111213;27;45524;-58
2023/06/27 06:03:37;;;;;;;2.90;1.20;;;23.80;78.10;;;;;;5107323;27;45291;-58
2023/06/27 06:06:04;;;;;;;1.30;0.80;;;23.80;77.90;;;;;;5117681;27;46406;-58
2023/06/27 06:08:30;;;;;;;1.45;0.68;;;23.80;77.60;;;;;;5117676;27;45249;-58
2023/06/27 06:10:57;;;;;;;2.90;0.90;;;23.80;78.20;;;;;;5103321;27;45401;-59
2023/06/27 06:13:24;;;;;;;3.85;1.00;;;23.80;77.80;;;;;;5112553;27;45574;-58
2023/06/27 06:15:52;;;;;;;2.33;1.17;;;23.80;78.90;;;;;;5113373;27;48124;-58
2023/06/27 06:18:19;;;;;;;2.35;0.80;;;23.70;78.10;;;;;;5108104;27;45451;-58
2023/06/27 06:20:45;;;;;;;1.63;0.93;;;23.80;78.30;;;;;;5111051;27;45459;-58
2023/06/27 06:23:12;;;;;;;2.38;0.98;;;23.80;78.60;;;;;;5115284;27;45542;-58
2023/06/27 06:25:39;;;;;;;3.38;1.00;;;23.80;78.50;;;;;;5123979;27;45363;-58
2023/06/27 06:28:05;;;;;;;3.25;1.55;;;23.80;78.60;;;;;;5120271;27;45573;-58
2023/06/27 06:30:32;;;;;;;4.15;1.13;;;23.80;78.60;;;;;;5111346;27;45467;-58
2023/06/27 06:33:00;;;;;;;2.05;1.00;;;23.80;79.30;;;;;;5106389;27;45357;-58
2023/06/27 06:35:27;;;;;;;2.45;1.00;;;23.80;79.00;;;;;;5118124;27;48115;-58
2023/06/27 06:37:54;;;;;;;2.95;1.17;;;23.80;79.20;;;;;;5121206;27;46129;-58
2023/06/27 06:40:21;;;;;;;6.10;1.25;;;23.80;78.90;;;;;;5108814;27;45511;-58
2023/06/27 06:42:48;;;;;;;2.63;1.20;;;23.90;79.00;;;;;;5107996;27;45399;-58
2023/06/27 06:45:15;;;;;;;3.03;1.20;;;23.80;79.70;;;;;;5113281;27;45453;-57
2023/06/27 06:47:42;;;;;;;2.10;1.00;;;23.90;79.40;;;;;;5102392;27;45226;-58
2023/06/27 06:50:11;;;;;;;3.33;1.15;;;23.80;79.40;;;;;;5101861;27;45455;-58
2023/06/27 06:52:37;;;;;;;1.75;1.00;;;23.90;79.40;;;;;;5103485;27;45272;-57
2023/06/27 06:55:05;;;;;;;4.75;1.25;;;23.90;79.50;;;;;;5119012;27;48887;-57
2023/06/27 06:57:31;;;;;;;3.30;1.10;;;23.90;79.70;;;;;;5116424;27;45250;-58
2023/06/27 06:59:58;;;;;;;3.35;0.95;;;23.80;79.80;;;;;;5102208;27;45271;-58
2023/06/27 07:02:25;;;;;;;2.10;1.05;;;23.80;80.70;;;;;;5107251;27;45410;-56
2023/06/27 07:04:52;;;;;;;3.03;1.00;;;23.90;80.60;;;;;;5110576;27;46985;-58
2023/06/27 07:07:23;;;;;;;2.65;1.15;;;23.90;80.70;;;;;;5102641;27;46169;-58
2023/06/27 07:09:49;;;;;;;2.50;1.10;;;23.80;80.50;;;;;;5109461;27;45246;-58
2023/06/27 07:12:16;;;;;;;3.15;1.17;;;23.90;81.10;;;;;;5111329;27;45404;-58
2023/06/27 07:14:43;;;;;;;1.65;0.90;;;23.90;81.60;;;;;;5119097;27;46277;-58
2023/06/27 07:17:09;;;;;;;6.20;1.17;;;23.80;81.10;;;;;;5122909;27;45379;-58
2023/06/27 07:19:36;;;;;;;6.90;1.33;;;23.90;81.60;;;;;;5119819;27;45469;-58
2023/06/27 07:22:03;;;;;;;1.88;1.00;;;23.80;81.60;;;;;;5119815;27;45299;-58
2023/06/27 07:24:31;;;;;;;2.83;1.20;;;23.80;81.50;;;;;;5116485;27;46108;-58
2023/06/27 07:26:57;;;;;;;3.25;1.10;;;23.80;82.50;;;;;;5111454;27;45512;-58
2023/06/27 07:29:24;;;;;;;2.72;1.00;;;23.80;82.90;;;;;;5115413;27;45340;-58
2023/06/27 07:31:51;;;;;;;3.08;1.10;;;23.80;82.30;;;;;;5119482;27;45467;-58
2023/06/27 07:34:18;;;;;;;2.25;1.27;;;23.80;83.30;;;;;;5113695;27;46597;-58
2023/06/27 07:36:47;;;;;;;3.05;1.17;;;23.80;83.50;;;;;;5108704;27;46125;-58
2023/06/27 07:39:14;;;;;;;3.50;1.17;;;23.80;82.90;;;;;;5118385;27;45482;-58
2023/06/27 07:41:42;;;;;;;3.67;1.10;;;23.80;83.10;;;;;;5120680;27;45245;-58
2023/06/27 07:44:09;;;;;;;3.75;1.10;;;23.80;84.00;;;;;;5123295;27;47438;-58
2023/06/27 07:46:36;;;;;;;2.17;1.08;;;23.80;83.80;;;;;;5111877;27;45336;-58
2023/06/27 07:49:02;;;;;;;1.80;1.00;;;23.80;83.40;;;;;;5112005;27;45379;-58
2023/06/27 07:51:31;;;;;;;2.30;0.90;;;23.80;83.20;;;;;;5114169;27;45484;-58
2023/06/27 07:54:00;;;;;;;2.47;0.85;;;23.80;83.00;;;;;;5121352;27;46581;-59
2023/06/27 07:56:26;;;;;;;2.72;1.13;;;23.80;82.90;;;;;;5111668;27;45334;-58
2023/06/27 07:58:55;;;;;;;2.70;1.13;;;23.80;82.80;;;;;;5111984;27;45292;-58
2023/06/27 08:01:21;;;;;;;3.17;1.30;;;23.80;82.80;;;;;;5119504;27;45301;-58
2023/06/27 08:03:48;;;;;;;2.72;0.98;;;23.80;83.10;;;;;;5121535;27;47503;-58
2023/06/27 08:06:15;;;;;;;3.63;0.80;;;23.80;83.50;;;;;;5105516;27;45385;-58
2023/06/27 08:08:42;;;;;;;1.80;1.10;;;23.80;83.40;;;;;;5106503;27;45348;-58
2023/06/27 08:11:09;;;;;;;5.15;1.00;;;23.80;83.40;;;;;;5110171;27;45447;-58
2023/06/27 08:13:41;;;;;;;2.97;1.30;;;23.80;83.50;;;;;;5114207;27;46655;-58
2023/06/27 08:16:09;;;;;;;5.18;1.08;;;23.80;83.50;;;;;;5121533;27;45301;-58
2023/06/27 08:18:36;;;;;;;3.30;1.00;;;23.80;83.60;;;;;;5119771;27;45415;-58
2023/06/27 08:21:04;;;;;;;1.73;1.00;;;23.80;83.80;;;;;;5124631;27;45426;-58
2023/06/27 08:23:31;;;;;;;3.25;1.10;;;23.80;83.50;;;;;;5114764;27;46584;-57
2023/06/27 08:25:57;;;;;;;4.90;1.23;;;23.80;83.50;;;;;;5114592;27;45595;-58
2023/06/27 08:28:24;;;;;;;1.50;0.85;;;23.80;83.20;;;;;;5107813;27;45399;-58
2023/06/27 08:30:51;;;;;;;3.28;1.17;;;23.80;83.00;;;;;;5119574;27;45448;-58
2023/06/27 08:33:19;;;;;;;3.60;1.05;;;23.80;83.30;;;;;;5104319;27;46345;-59
2023/06/27 08:35:46;;;;;;;3.90;1.00;;;23.80;83.20;;;;;;5116525;27;45362;-58
2023/06/27 08:38:13;;;;;;;2.47;1.10;;;23.80;83.30;;;;;;5113399;27;45593;-58
2023/06/27 08:40:41;;;;;;;1.65;0.90;;;23.80;83.20;;;;;;5114237;27;45283;-58
2023/06/27 08:43:11;;;;;;;3.40;1.02;;;23.80;84.70;;;;;;5120118;27;46517;-58
2023/06/27 08:45:38;;;;;;;2.55;1.10;;;23.80;83.30;;;;;;5116504;27;45427;-59
2023/06/27 08:48:07;;;;;;;2.58;1.13;;;23.80;83.30;;;;;;5109985;27;45371;-58
2023/06/27 08:50:38;;;;;;;2.75;0.82;;;23.80;83.30;;;;;;5123148;27;45426;-58
2023/06/27 08:53:10;;;;;;;2.47;0.73;;;23.80;83.40;;;;;;5124493;27;45361;-58
2023/06/27 08:55:43;;;;;;;2.03;1.00;;;23.80;83.30;;;;;;5125143;27;45397;-58
2023/06/27 08:58:14;;;;;;;1.98;0.90;;;23.80;83.40;;;;;;5105719;27;45303;-59
2023/06/27 09:00:41;;;;;;;2.20;0.90;;;23.80;83.30;;;;;;5106112;27;45386;-58
2023/06/27 09:03:08;;;;;;;3.75;0.93;;;23.80;83.20;;;;;;5111463;27;45848;-58
2023/06/27 09:05:37;;;;;;;1.75;0.70;;;23.80;83.40;;;;;;5117596;27;45280;-58
2023/06/27 09:08:04;;;;;;;2.22;0.90;;;23.80;83.00;;;;;;5107798;27;45318;-58
2023/06/27 09:10:31;;;;;;;4.82;1.02;;;23.80;83.00;;;;;;5110589;27;45481;-58
2023/06/27 09:12:59;;;;;;;1.52;0.77;;;23.80;83.30;;;;;;5112242;27;46597;-58
2023/06/27 09:15:26;;;;;;;2.20;0.90;;;23.80;83.90;;;;;;5112216;27;45403;-58
2023/06/27 09:17:53;;;;;;;1.90;1.00;;;23.80;84.00;;;;;;5115305;27;45331;-58
2023/06/27 09:20:20;;;;;;;1.80;1.00;;;23.80;83.70;;;;;;5123936;27;45444;-58
2023/06/27 09:22:49;;;;;;;1.52;0.80;;;23.80;85.00;;;;;;5123134;27;46586;-58
2023/06/27 09:25:19;;;;;;;1.83;0.90;;;23.80;84.10;;;;;;5114254;27;45986;-58
2023/06/27 09:27:46;;;;;;;1.10;0.60;;;23.80;84.10;;;;;;5118389;27;45610;-58
2023/06/27 09:30:13;;;;;;;2.33;0.90;;;23.80;84.30;;;;;;5118850;27;45606;-58
2023/06/27 09:32:54;;;;;;;2.30;0.75;;;23.90;84.60;;;;;;5121412;27;45445;-58
2023/06/27 09:35:21;;;;;;;1.67;0.60;;;23.80;84.80;;;;;;5119553;27;45328;-58
2023/06/27 09:37:49;;;;;;;2.55;1.00;;;23.80;84.90;;;;;;5112815;27;45401;-58
2023/06/27 09:40:20;;;;;;;3.53;0.90;;;23.80;84.00;;;;;;5117518;27;45479;-58
2023/06/27 09:42:51;;;;;;;1.98;0.70;;;23.80;82.90;;;;;;5103630;27;46251;-58
2023/06/27 09:45:18;;;;;;;1.67;0.75;;;23.80;82.60;;;;;;5103752;27;45407;-57
2023/06/27 09:47:48;;;;;;;3.67;1.15;;;23.90;82.80;;;;;;5123980;27;45280;-58
2023/06/27 09:50:14;;;;;;;1.38;0.77;;;23.80;82.80;;;;;;5115270;27;45303;-58
2023/06/27 09:52:48;;;;;;;2.78;0.82;;;23.80;82.70;;;;;;5114990;27;47409;-58
2023/06/27 09:55:19;;;;;;;2.70;0.95;;;23.80;82.60;;;;;;5120257;27;45921;-58
2023/06/27 09:57:46;;;;;;;2.70;1.00;;;23.80;82.40;;;;;;5116817;27;45438;-58
2023/06/27 10:00:13;;;;;;;3.92;0.90;;;23.80;81.60;;;;;;5105524;27;45391;-58
2023/06/27 10:02:41;;;;;;;1.73;0.63;;;23.80;81.50;;;;;;5110051;27;46609;-58
2023/06/27 10:05:09;;;;;;;2.72;0.80;;;23.80;81.50;;;;;;5105013;27;45479;-58
2023/06/27 10:07:35;;;;;;;3.67;1.02;;;23.80;81.50;;;;;;5103798;27;45403;-58
2023/06/27 10:10:02;;;;;;;2.40;1.00;;;23.80;81.50;;;;;;5120284;27;45484;-58
2023/06/27 10:12:31;;;;;;;2.80;1.00;;;23.80;81.50;;;;;;5111896;27;47515;-58
2023/06/27 10:14:58;;;;;;;1.95;0.80;;;23.90;81.70;;;;;;5122282;27;45388;-58
2023/06/27 10:17:25;;;;;;;1.20;0.80;;;23.80;81.50;;;;;;5103491;27;45299;-58
2023/06/27 10:19:52;;;;;;;2.38;0.70;;;23.80;82.60;;;;;;5108490;27;45635;-58
2023/06/27 10:22:21;;;;;;;2.95;0.90;;;23.80;81.50;;;;;;5109230;27;46146;-58
2023/06/27 10:24:52;;;;;;;2.58;0.80;;;23.80;81.60;;;;;;5114073;27;45572;-58
2023/06/27 10:27:23;;;;;;;2.78;1.02;;;23.80;82.70;;;;;;5111132;27;45658;-58
2023/06/27 10:29:51;;;;;;;2.20;1.10;;;23.80;82.20;;;;;;5114368;27;45639;-58
2023/06/27 10:32:19;;;;;;;1.65;0.90;;;23.80;82.90;;;;;;5117482;27;46360;-58
2023/06/27 10:34:46;;;;;;;1.08;0.75;;;23.80;82.40;;;;;;5119340;27;45250;-58
2023/06/27 10:37:23;;;;;;;0.90;0.73;;;23.80;82.80;;;;;;5115914;27;45617;-58
2023/06/27 10:39:56;;;;;;;2.45;1.00;;;23.80;82.80;;;;;;5117895;27;45400;-58
2023/06/27 10:42:31;;;;;;;2.33;0.77;;;23.90;83.90;;;;;;5110378;27;46577;-58
2023/06/27 10:45:08;;;;;;;1.73;0.65;;;23.90;82.70;;;;;;5110879;27;45547;-57
2023/06/27 10:47:38;;;;;;;2.30;0.70;;;23.90;82.60;;;;;;5117270;27;45494;-58
2023/06/27 10:50:10;;;;;;;2.55;0.98;;;23.90;82.60;;;;;;5113458;27;45355;-58
2023/06/27 10:52:38;;;;;;;1.20;0.70;;;23.90;82.70;;;;;;5106558;27;48728;-58
2023/06/27 10:55:21;;;;;;;1.55;0.80;;;23.80;83.20;;;;;;5111331;27;45256;-58
2023/06/27 10:58:06;;;;;;;1.90;0.88;;;23.80;83.20;;;;;;5116720;27;45256;-58
2023/06/27 11:00:35;;;;;;;1.25;0.85;;;23.80;84.60;;;;;;5108171;27;45501;-58
2023/06/27 11:03:04;;;;;;;2.67;0.88;;;23.80;83.00;;;;;;5122782;27;47135;-57
2023/06/27 11:05:45;;;;;;;0.90;0.60;;;23.80;85.10;;;;;;5110126;27;45438;-58
2023/06/27 11:08:15;;;;;;;2.35;0.80;;;23.80;84.70;;;;;;5114969;27;45259;-58
2023/06/27 11:10:53;;;;;;;2.13;0.80;;;23.80;83.30;;;;;;5121045;27;45547;-58
2023/06/27 11:13:22;;;;;;;2.15;0.90;;;23.80;82.60;;;;;;5122384;27;45596;-58
2023/06/27 11:15:52;;;;;;;2.67;0.80;;;23.70;84.10;;;;;;5123105;27;45347;-58
2023/06/27 11:18:20;;;;;;;1.02;0.63;;;23.80;84.40;;;;;;5112029;27;45309;-58
2023/06/27 11:20:47;;;;;;;1.08;0.70;;;23.80;83.30;;;;;;5119355;27;45331;-58
2023/06/27 11:23:14;;;;;;;5.50;1.40;;;23.80;83.70;;;;;;5113429;27;47962;-67
2023/06/27 11:25:43;;;;;;;7.10;1.30;;;22.20;66.60;;;;;;5115975;27;45409;-67
2023/06/27 11:28:10;;;;;;;5.72;1.40;;;21.20;72.10;;;;;;5119464;27;45417;-67
2023/06/27 11:30:38;;;;;;;5.13;1.27;;;21.10;73.40;;;;;;5106104;27;45565;-68
2023/06/27 11:33:06;;;;;;;4.60;1.50;;;21.20;69.30;;;;;;5115316;27;49042;-66
2023/06/27 11:35:34;;;;;;;6.25;1.67;;;21.20;74.60;;;;;;5118589;27;45354;-71
2023/06/27 11:38:01;;;;;;;6.05;1.60;;;21.40;74.40;;;;;;5109295;27;45434;-66
2023/06/27 11:40:30;;;;;;;8.40;1.73;;;21.40;70.40;;;;;;5116780;27;45568;-67
2023/06/27 11:43:02;;;;;;;11.02;1.58;;;21.10;69.80;;;;;;5125742;27;46713;-67
2023/06/27 11:45:29;;;;;;;6.55;1.30;;;21.20;68.50;;;;;;5118180;27;45368;-69
2023/06/27 11:47:56;;;;;;;6.57;1.40;;;21.30;68.90;;;;;;5122920;27;45503;-69
2023/06/27 11:50:24;;;;;;;6.57;1.95;;;21.30;67.60;;;;;;5105080;27;45438;-68
2023/06/27 11:52:51;;;;;;;4.63;1.42;;;21.40;71.30;;;;;;5106703;27;45480;-69
2023/06/27 11:55:18;;;;;;;5.78;1.75;;;21.60;70.80;;;;;;5110042;27;45417;-69
2023/06/27 11:57:46;;;;;;;5.25;1.80;;;22.00;71.40;;;;;;5104937;27;45453;-70
2023/06/27 12:00:18;;;;;;;4.65;1.67;;;21.80;69.70;;;;;;5120244;27;45600;-70
2023/06/27 12:02:50;;;;;;;5.35;1.60;;;21.80;69.20;;;;;;5119078;27;47676;-70
2023/06/27 12:05:17;;;;;;;7.38;1.80;;;21.60;68.80;;;;;;5123800;27;45372;-69
2023/06/27 12:07:57;;;;;;;6.68;1.55;;;21.50;70.70;;;;;;5125207;27;45442;-69
2023/06/27 12:10:25;;;;;;;6.70;1.58;;;21.40;71.00;;;;;;5116063;27;45511;-71
2023/06/27 12:12:52;;;;;;;7.47;1.60;;;21.20;73.80;;;;;;5111520;27;47523;-72
2023/06/27 12:15:18;;;;;;;6.10;1.92;;;21.00;76.60;;;;;;5120181;27;45324;-71
2023/06/27 12:18:02;;;;;;;12.52;1.73;;;21.00;77.60;;;;;;5123623;27;45415;-70
2023/06/27 12:20:40;;;;;;;6.35;1.58;;;20.90;76.30;;;;;;5123299;27;45358;-68
2023/06/27 12:23:09;;;;;;;10.35;1.60;;;21.00;77.90;;;;;;5117396;27;45550;-67
2023/06/27 12:25:39;;;;;;;6.63;1.98;;;20.90;79.10;;;;;;5117421;27;45379;-67
2023/06/27 12:28:05;;;;;;;9.95;1.83;;;20.90;81.00;;;;;;5122067;27;45375;-67
2023/06/27 12:30:32;;;;;;;5.50;1.40;;;20.70;80.70;;;;;;5107960;27;45474;-70
2023/06/27 12:32:59;;;;;;;9.43;2.00;;;20.90;81.30;;;;;;5122776;27;46573;-68
2023/06/27 12:35:26;;;;;;;10.23;1.80;;;20.80;78.90;;;;;;5121204;27;45536;-67
2023/06/27 12:37:53;;;;;;;6.47;1.55;;;20.90;78.00;;;;;;5116931;27;45478;-67
2023/06/27 12:40:22;;;;;;;7.38;1.50;;;21.00;79.10;;;;;;5119139;27;45190;-67
2023/06/27 12:42:50;;;;;;;8.80;1.90;;;20.80;79.60;;;;;;5117087;27;45505;-67
2023/06/27 12:45:17;;;;;;;5.68;1.77;;;20.80;74.40;;;;;;5120157;27;45290;-67
2023/06/27 12:47:45;;;;;;;5.22;1.60;;;20.80;74.30;;;;;;5119389;27;45340;-69
2023/06/27 12:50:14;;;;;;;5.20;1.60;;;20.90;72.50;;;;;;5113589;27;45374;-67